sensor_id;sensor_type;location;lat;lon;timestamp;P1;durP1;ratioP1;P2;durP2;ratioP2
19754;SDS011;10036;47.812;9.274;2023-02-18T00:00:00;6.05;;;4.00;;
19754;SDS011;10036;47.812;9.274;2023-02-18T00:02:27;5.75;;;4.57;;
19754;SDS011;10036;47.812;9.274;2023-02-18T00:04:54;5.22;;;4.25;;
19754;SDS011;10036;47.812;9.274;2023-02-18T00:07:21;4.72;;;3.88;;
19754;SDS011;10036;47.812;9.274;2023-02-18T00:09:49;5.00;;;4.05;;
19754;SDS011;10036;47.812;9.274;2023-02-18T00:12:16;5.00;;;3.83;;
19754;SDS011;10036;47.812;9.274;2023-02-18T00:14:43;4.97;;;3.60;;
19754;SDS011;10036;47.812;9.274;2023-02-18T00:17:10;4.78;;;3.42;;
19754;SDS011;10036;47.812;9.274;2023-02-18T00:19:36;4.43;;;3.60;;
19754;SDS011;10036;47.812;9.274;2023-02-18T00:22:03;5.35;;;3.47;;
19754;SDS011;10036;47.812;9.274;2023-02-18T00:24:30;6.50;;;3.50;;
19754;SDS011;10036;47.812;9.274;2023-02-18T00:26:58;4.30;;;3.25;;
19754;SDS011;10036;47.812;9.274;2023-02-18T00:29:25;4.50;;;3.53;;
19754;SDS011;10036;47.812;9.274;2023-02-18T00:31:52;3.63;;;3.17;;
19754;SDS011;10036;47.812;9.274;2023-02-18T00:34:19;4.97;;;3.88;;
19754;SDS011;10036;47.812;9.274;2023-02-18T00:36:46;4.85;;;3.53;;
19754;SDS011;10036;47.812;9.274;2023-02-18T00:39:13;5.53;;;3.50;;
19754;SDS011;10036;47.812;9.274;2023-02-18T00:41:40;4.00;;;3.50;;
19754;SDS011;10036;47.812;9.274;2023-02-18T00:44:08;3.45;;;3.15;;
19754;SDS011;10036;47.812;9.274;2023-02-18T00:46:36;4.07;;;3.22;;
19754;SDS011;10036;47.812;9.274;2023-02-18T00:49:04;2.72;;;2.50;;
19754;SDS011;10036;47.812;9.274;2023-02-18T00:51:31;3.65;;;3.03;;
19754;SDS011;10036;47.812;9.274;2023-02-18T00:53:59;3.85;;;3.25;;
19754;SDS011;10036;47.812;9.274;2023-02-18T00:56:26;3.55;;;2.85;;
19754;SDS011;10036;47.812;9.274;2023-02-18T00:58:53;3.25;;;2.88;;
19754;SDS011;10036;47.812;9.274;2023-02-18T01:01:21;3.88;;;2.78;;
19754;SDS011;10036;47.812;9.274;2023-02-18T01:03:48;3.83;;;2.72;;
19754;SDS011;10036;47.812;9.274;2023-02-18T01:06:15;3.50;;;3.20;;
19754;SDS011;10036;47.812;9.274;2023-02-18T01:08:42;2.72;;;2.53;;
19754;SDS011;10036;47.812;9.274;2023-02-18T01:11:09;2.92;;;2.55;;
19754;SDS011;10036;47.812;9.274;2023-02-18T01:13:38;2.67;;;2.17;;
19754;SDS011;10036;47.812;9.274;2023-02-18T01:16:05;2.42;;;2.22;;
19754;SDS011;10036;47.812;9.274;2023-02-18T01:18:34;3.03;;;2.35;;
19754;SDS011;10036;47.812;9.274;2023-02-18T01:21:01;3.45;;;2.40;;
19754;SDS011;10036;47.812;9.274;2023-02-18T01:23:29;2.72;;;2.53;;
19754;SDS011;10036;47.812;9.274;2023-02-18T01:25:56;3.03;;;2.60;;
19754;SDS011;10036;47.812;9.274;2023-02-18T01:28:23;2.67;;;2.45;;
19754;SDS011;10036;47.812;9.274;2023-02-18T01:30:50;3.25;;;2.92;;
19754;SDS011;10036;47.812;9.274;2023-02-18T01:33:18;3.10;;;2.80;;
19754;SDS011;10036;47.812;9.274;2023-02-18T01:35:46;3.08;;;2.72;;
19754;SDS011;10036;47.812;9.274;2023-02-18T01:38:13;3.10;;;2.80;;
19754;SDS011;10036;47.812;9.274;2023-02-18T01:40:45;3.10;;;2.80;;
19754;SDS011;10036;47.812;9.274;2023-02-18T01:43:15;4.40;;;3.00;;
19754;SDS011;10036;47.812;9.274;2023-02-18T01:45:49;2.83;;;2.60;;
19754;SDS011;10036;47.812;9.274;2023-02-18T01:48:23;2.92;;;2.45;;
19754;SDS011;10036;47.812;9.274;2023-02-18T01:50:56;3.25;;;2.92;;
19754;SDS011;10036;47.812;9.274;2023-02-18T01:53:29;3.45;;;2.78;;
19754;SDS011;10036;47.812;9.274;2023-02-18T01:55:59;3.88;;;2.50;;
19754;SDS011;10036;47.812;9.274;2023-02-18T01:58:28;2.85;;;2.40;;
19754;SDS011;10036;47.812;9.274;2023-02-18T02:00:56;3.05;;;2.58;;
19754;SDS011;10036;47.812;9.274;2023-02-18T02:03:23;2.53;;;2.33;;
19754;SDS011;10036;47.812;9.274;2023-02-18T02:05:50;2.85;;;2.53;;
19754;SDS011;10036;47.812;9.274;2023-02-18T02:08:18;4.90;;;2.97;;
19754;SDS011;10036;47.812;9.274;2023-02-18T02:10:55;2.90;;;2.70;;
19754;SDS011;10036;47.812;9.274;2023-02-18T02:13:33;2.63;;;2.42;;
19754;SDS011;10036;47.812;9.274;2023-02-18T02:16:10;2.63;;;2.40;;
19754;SDS011;10036;47.812;9.274;2023-02-18T02:18:45;2.63;;;2.42;;
19754;SDS011;10036;47.812;9.274;2023-02-18T02:27:32;2.35;;;2.17;;
19754;SDS011;10036;47.812;9.274;2023-02-18T02:30:41;2.50;;;2.15;;
19754;SDS011;10036;47.812;9.274;2023-02-18T02:36:16;4.15;;;2.42;;
19754;SDS011;10036;47.812;9.274;2023-02-18T02:38:49;4.57;;;2.70;;
19754;SDS011;10036;47.812;9.274;2023-02-18T02:41:23;3.15;;;2.85;;
19754;SDS011;10036;47.812;9.274;2023-02-18T02:44:01;2.72;;;2.53;;
19754;SDS011;10036;47.812;9.274;2023-02-18T02:46:36;2.58;;;2.38;;
19754;SDS011;10036;47.812;9.274;2023-02-18T02:49:07;2.95;;;2.60;;
19754;SDS011;10036;47.812;9.274;2023-02-18T02:51:46;2.95;;;2.35;;
19754;SDS011;10036;47.812;9.274;2023-02-18T02:54:22;4.15;;;2.55;;
19754;SDS011;10036;47.812;9.274;2023-02-18T02:57:01;2.72;;;2.53;;
19754;SDS011;10036;47.812;9.274;2023-02-18T02:59:31;2.45;;;2.25;;
19754;SDS011;10036;47.812;9.274;2023-02-18T03:02:01;2.67;;;2.00;;
19754;SDS011;10036;47.812;9.274;2023-02-18T03:04:42;2.40;;;2.15;;
19754;SDS011;10036;47.812;9.274;2023-02-18T03:07:31;3.05;;;1.75;;
19754;SDS011;10036;47.812;9.274;2023-02-18T03:10:25;1.90;;;1.80;;
19754;SDS011;10036;47.812;9.274;2023-02-18T03:13:03;2.10;;;1.90;;
19754;SDS011;10036;47.812;9.274;2023-02-18T03:15:39;2.10;;;2.00;;
19754;SDS011;10036;47.812;9.274;2023-02-18T03:18:15;2.42;;;1.90;;
19754;SDS011;10036;47.812;9.274;2023-02-18T03:20:49;1.83;;;1.73;;
19754;SDS011;10036;47.812;9.274;2023-02-18T03:23:22;1.88;;;1.70;;
19754;SDS011;10036;47.812;9.274;2023-02-18T03:25:53;1.80;;;1.70;;
19754;SDS011;10036;47.812;9.274;2023-02-18T03:28:23;2.35;;;1.95;;
19754;SDS011;10036;47.812;9.274;2023-02-18T03:30:57;1.70;;;1.60;;
19754;SDS011;10036;47.812;9.274;2023-02-18T03:33:32;1.90;;;1.80;;
19754;SDS011;10036;47.812;9.274;2023-02-18T03:36:03;1.88;;;1.77;;
19754;SDS011;10036;47.812;9.274;2023-02-18T03:38:34;1.70;;;1.60;;
19754;SDS011;10036;47.812;9.274;2023-02-18T03:41:03;1.75;;;1.58;;
19754;SDS011;10036;47.812;9.274;2023-02-18T03:43:30;1.67;;;1.58;;
19754;SDS011;10036;47.812;9.274;2023-02-18T03:45:57;1.80;;;1.70;;
19754;SDS011;10036;47.812;9.274;2023-02-18T03:48:24;1.60;;;1.50;;
19754;SDS011;10036;47.812;9.274;2023-02-18T03:50:51;1.73;;;1.63;;
19754;SDS011;10036;47.812;9.274;2023-02-18T03:53:18;1.90;;;1.70;;
19754;SDS011;10036;47.812;9.274;2023-02-18T03:55:46;1.80;;;1.70;;
19754;SDS011;10036;47.812;9.274;2023-02-18T03:58:13;2.65;;;1.70;;
19754;SDS011;10036;47.812;9.274;2023-02-18T04:00:40;2.88;;;1.75;;
19754;SDS011;10036;47.812;9.274;2023-02-18T04:03:07;1.75;;;1.65;;
19754;SDS011;10036;47.812;9.274;2023-02-18T04:05:34;1.80;;;1.70;;
19754;SDS011;10036;47.812;9.274;2023-02-18T04:08:01;1.95;;;1.75;;
19754;SDS011;10036;47.812;9.274;2023-02-18T04:10:27;1.75;;;1.65;;
19754;SDS011;10036;47.812;9.274;2023-02-18T04:12:56;1.50;;;1.40;;
19754;SDS011;10036;47.812;9.274;2023-02-18T04:15:22;1.42;;;1.33;;
19754;SDS011;10036;47.812;9.274;2023-02-18T04:17:49;1.60;;;1.50;;
19754;SDS011;10036;47.812;9.274;2023-02-18T04:20:16;1.50;;;1.40;;
19754;SDS011;10036;47.812;9.274;2023-02-18T04:22:43;1.75;;;1.60;;
19754;SDS011;10036;47.812;9.274;2023-02-18T04:25:10;1.77;;;1.67;;
19754;SDS011;10036;47.812;9.274;2023-02-18T04:27:37;1.95;;;1.80;;
19754;SDS011;10036;47.812;9.274;2023-02-18T04:30:06;3.38;;;2.22;;
19754;SDS011;10036;47.812;9.274;2023-02-18T04:32:33;2.10;;;1.90;;
19754;SDS011;10036;47.812;9.274;2023-02-18T04:35:00;1.90;;;1.80;;
19754;SDS011;10036;47.812;9.274;2023-02-18T04:37:27;2.30;;;2.10;;
19754;SDS011;10036;47.812;9.274;2023-02-18T04:39:54;2.17;;;1.98;;
19754;SDS011;10036;47.812;9.274;2023-02-18T04:42:21;2.35;;;2.15;;
19754;SDS011;10036;47.812;9.274;2023-02-18T04:44:47;3.92;;;3.63;;
19754;SDS011;10036;47.812;9.274;2023-02-18T04:47:16;4.05;;;2.97;;
19754;SDS011;10036;47.812;9.274;2023-02-18T04:49:42;15.68;;;8.23;;
19754;SDS011;10036;47.812;9.274;2023-02-18T04:52:09;12.43;;;7.13;;
19754;SDS011;10036;47.812;9.274;2023-02-18T04:54:36;9.10;;;4.80;;
19754;SDS011;10036;47.812;9.274;2023-02-18T04:57:03;3.85;;;3.25;;
19754;SDS011;10036;47.812;9.274;2023-02-18T04:59:30;3.08;;;2.88;;
19754;SDS011;10036;47.812;9.274;2023-02-18T05:01:57;3.03;;;2.78;;
19754;SDS011;10036;47.812;9.274;2023-02-18T05:04:25;2.80;;;2.47;;
19754;SDS011;10036;47.812;9.274;2023-02-18T05:06:52;3.53;;;2.42;;
19754;SDS011;10036;47.812;9.274;2023-02-18T05:09:18;3.45;;;2.70;;
19754;SDS011;10036;47.812;9.274;2023-02-18T05:11:45;3.50;;;2.78;;
19754;SDS011;10036;47.812;9.274;2023-02-18T05:14:13;3.10;;;2.80;;
19754;SDS011;10036;47.812;9.274;2023-02-18T05:16:40;4.22;;;2.63;;
19754;SDS011;10036;47.812;9.274;2023-02-18T05:19:06;8.85;;;3.47;;
19754;SDS011;10036;47.812;9.274;2023-02-18T05:21:35;8.27;;;3.47;;
19754;SDS011;10036;47.812;9.274;2023-02-18T05:24:01;5.80;;;2.70;;
19754;SDS011;10036;47.812;9.274;2023-02-18T05:26:28;3.20;;;2.60;;
19754;SDS011;10036;47.812;9.274;2023-02-18T05:28:55;2.75;;;2.55;;
19754;SDS011;10036;47.812;9.274;2023-02-18T05:31:22;2.88;;;2.55;;
19754;SDS011;10036;47.812;9.274;2023-02-18T05:33:49;3.58;;;2.63;;
19754;SDS011;10036;47.812;9.274;2023-02-18T05:36:16;3.08;;;2.63;;
19754;SDS011;10036;47.812;9.274;2023-02-18T05:38:44;2.78;;;2.58;;
19754;SDS011;10036;47.812;9.274;2023-02-18T05:41:11;3.15;;;2.67;;
19754;SDS011;10036;47.812;9.274;2023-02-18T05:43:37;3.72;;;2.97;;
19754;SDS011;10036;47.812;9.274;2023-02-18T05:46:18;3.15;;;2.47;;
19754;SDS011;10036;47.812;9.274;2023-02-18T05:48:45;3.63;;;2.90;;
19754;SDS011;10036;47.812;9.274;2023-02-18T05:51:12;2.83;;;2.63;;
19754;SDS011;10036;47.812;9.274;2023-02-18T05:53:39;2.95;;;2.72;;
19754;SDS011;10036;47.812;9.274;2023-02-18T05:56:07;7.30;;;2.72;;
19754;SDS011;10036;47.812;9.274;2023-02-18T05:58:34;4.28;;;3.20;;
19754;SDS011;10036;47.812;9.274;2023-02-18T06:01:01;3.03;;;2.70;;
19754;SDS011;10036;47.812;9.274;2023-02-18T06:03:28;3.33;;;3.03;;
19754;SDS011;10036;47.812;9.274;2023-02-18T06:05:55;3.10;;;2.80;;
19754;SDS011;10036;47.812;9.274;2023-02-18T06:08:22;2.88;;;2.50;;
19754;SDS011;10036;47.812;9.274;2023-02-18T06:10:49;3.15;;;2.63;;
19754;SDS011;10036;47.812;9.274;2023-02-18T06:13:17;3.25;;;2.83;;
19754;SDS011;10036;47.812;9.274;2023-02-18T06:15:44;2.80;;;2.60;;
19754;SDS011;10036;47.812;9.274;2023-02-18T06:18:11;3.35;;;2.83;;
19754;SDS011;10036;47.812;9.274;2023-02-18T06:20:38;3.42;;;2.50;;
19754;SDS011;10036;47.812;9.274;2023-02-18T06:23:05;3.80;;;2.80;;
19754;SDS011;10036;47.812;9.274;2023-02-18T06:25:32;2.90;;;2.70;;
19754;SDS011;10036;47.812;9.274;2023-02-18T06:27:59;2.90;;;2.70;;
19754;SDS011;10036;47.812;9.274;2023-02-18T06:30:27;3.42;;;3.13;;
19754;SDS011;10036;47.812;9.274;2023-02-18T06:32:54;3.00;;;2.80;;
19754;SDS011;10036;47.812;9.274;2023-02-18T06:35:21;3.97;;;3.50;;
19754;SDS011;10036;47.812;9.274;2023-02-18T06:37:48;3.92;;;3.50;;
19754;SDS011;10036;47.812;9.274;2023-02-18T06:40:15;3.70;;;2.83;;
19754;SDS011;10036;47.812;9.274;2023-02-18T06:42:42;3.63;;;2.78;;
19754;SDS011;10036;47.812;9.274;2023-02-18T06:45:09;3.05;;;2.72;;
19754;SDS011;10036;47.812;9.274;2023-02-18T06:47:37;2.67;;;2.20;;
19754;SDS011;10036;47.812;9.274;2023-02-18T06:50:05;1.83;;;1.70;;
19754;SDS011;10036;47.812;9.274;2023-02-18T06:52:32;3.53;;;2.17;;
19754;SDS011;10036;47.812;9.274;2023-02-18T06:54:59;1.95;;;1.60;;
19754;SDS011;10036;47.812;9.274;2023-02-18T06:57:26;4.57;;;1.98;;
19754;SDS011;10036;47.812;9.274;2023-02-18T06:59:53;2.35;;;2.15;;
19754;SDS011;10036;47.812;9.274;2023-02-18T07:02:19;3.42;;;1.95;;
19754;SDS011;10036;47.812;9.274;2023-02-18T07:04:48;4.07;;;2.20;;
19754;SDS011;10036;47.812;9.274;2023-02-18T07:07:14;5.20;;;2.13;;
19754;SDS011;10036;47.812;9.274;2023-02-18T07:09:41;2.80;;;2.13;;
19754;SDS011;10036;47.812;9.274;2023-02-18T07:12:08;2.80;;;1.75;;
19754;SDS011;10036;47.812;9.274;2023-02-18T07:14:35;2.70;;;2.00;;
19754;SDS011;10036;47.812;9.274;2023-02-18T07:17:02;2.22;;;2.00;;
19754;SDS011;10036;47.812;9.274;2023-02-18T07:19:28;2.00;;;1.80;;
19754;SDS011;10036;47.812;9.274;2023-02-18T07:21:57;1.60;;;1.50;;
19754;SDS011;10036;47.812;9.274;2023-02-18T07:24:24;1.65;;;1.55;;
19754;SDS011;10036;47.812;9.274;2023-02-18T07:26:51;2.03;;;1.83;;
19754;SDS011;10036;47.812;9.274;2023-02-18T07:29:18;1.60;;;1.50;;
19754;SDS011;10036;47.812;9.274;2023-02-18T07:31:44;2.00;;;1.75;;
19754;SDS011;10036;47.812;9.274;2023-02-18T07:34:11;1.60;;;1.50;;
19754;SDS011;10036;47.812;9.274;2023-02-18T07:36:38;1.45;;;1.35;;
19754;SDS011;10036;47.812;9.274;2023-02-18T07:39:06;1.33;;;1.30;;
19754;SDS011;10036;47.812;9.274;2023-02-18T07:41:33;2.03;;;1.40;;
19754;SDS011;10036;47.812;9.274;2023-02-18T07:44:00;1.30;;;1.30;;
19754;SDS011;10036;47.812;9.274;2023-02-18T07:46:27;1.63;;;1.30;;
19754;SDS011;10036;47.812;9.274;2023-02-18T07:48:55;1.52;;;1.42;;
19754;SDS011;10036;47.812;9.274;2023-02-18T07:51:22;1.73;;;1.30;;
19754;SDS011;10036;47.812;9.274;2023-02-18T07:53:48;1.50;;;1.40;;
19754;SDS011;10036;47.812;9.274;2023-02-18T07:56:17;1.20;;;1.20;;
19754;SDS011;10036;47.812;9.274;2023-02-18T07:58:44;1.20;;;1.20;;
19754;SDS011;10036;47.812;9.274;2023-02-18T08:01:11;2.05;;;1.10;;
19754;SDS011;10036;47.812;9.274;2023-02-18T08:03:40;1.45;;;1.35;;
19754;SDS011;10036;47.812;9.274;2023-02-18T08:06:07;1.58;;;1.40;;
19754;SDS011;10036;47.812;9.274;2023-02-18T08:08:41;2.80;;;1.70;;
19754;SDS011;10036;47.812;9.274;2023-02-18T08:11:08;2.42;;;1.40;;
19754;SDS011;10036;47.812;9.274;2023-02-18T08:13:36;2.78;;;1.90;;
19754;SDS011;10036;47.812;9.274;2023-02-18T08:16:03;2.08;;;1.88;;
19754;SDS011;10036;47.812;9.274;2023-02-18T08:18:30;2.25;;;1.85;;
19754;SDS011;10036;47.812;9.274;2023-02-18T08:20:57;3.10;;;1.95;;
19754;SDS011;10036;47.812;9.274;2023-02-18T08:23:24;2.60;;;2.30;;
19754;SDS011;10036;47.812;9.274;2023-02-18T08:25:51;1.80;;;1.70;;
19754;SDS011;10036;47.812;9.274;2023-02-18T08:28:19;2.30;;;2.00;;
19754;SDS011;10036;47.812;9.274;2023-02-18T08:30:49;6.13;;;2.25;;
19754;SDS011;10036;47.812;9.274;2023-02-18T08:33:17;2.47;;;1.90;;
19754;SDS011;10036;47.812;9.274;2023-02-18T08:35:45;2.50;;;2.10;;
19754;SDS011;10036;47.812;9.274;2023-02-18T08:38:13;2.00;;;1.88;;
19754;SDS011;10036;47.812;9.274;2023-02-18T08:40:40;1.90;;;1.70;;
19754;SDS011;10036;47.812;9.274;2023-02-18T08:43:07;1.95;;;1.85;;
19754;SDS011;10036;47.812;9.274;2023-02-18T08:45:35;1.70;;;1.60;;
19754;SDS011;10036;47.812;9.274;2023-02-18T08:48:04;1.58;;;1.48;;
19754;SDS011;10036;47.812;9.274;2023-02-18T08:50:32;1.80;;;1.70;;
19754;SDS011;10036;47.812;9.274;2023-02-18T08:52:59;1.90;;;1.80;;
19754;SDS011;10036;47.812;9.274;2023-02-18T08:55:27;1.92;;;1.67;;
19754;SDS011;10036;47.812;9.274;2023-02-18T08:57:54;1.98;;;1.73;;
19754;SDS011;10036;47.812;9.274;2023-02-18T09:00:21;1.70;;;1.60;;
19754;SDS011;10036;47.812;9.274;2023-02-18T09:02:48;2.28;;;1.90;;
19754;SDS011;10036;47.812;9.274;2023-02-18T09:05:17;2.78;;;1.60;;
19754;SDS011;10036;47.812;9.274;2023-02-18T09:07:44;2.00;;;1.90;;
19754;SDS011;10036;47.812;9.274;2023-02-18T09:10:11;2.25;;;2.05;;
19754;SDS011;10036;47.812;9.274;2023-02-18T09:12:37;5.25;;;2.03;;
19754;SDS011;10036;47.812;9.274;2023-02-18T09:15:04;3.15;;;1.90;;
19754;SDS011;10036;47.812;9.274;2023-02-18T09:17:32;2.38;;;2.17;;
19754;SDS011;10036;47.812;9.274;2023-02-18T09:19:59;2.20;;;2.00;;
19754;SDS011;10036;47.812;9.274;2023-02-18T09:22:27;3.58;;;2.28;;
19754;SDS011;10036;47.812;9.274;2023-02-18T09:24:54;3.47;;;1.90;;
19754;SDS011;10036;47.812;9.274;2023-02-18T09:27:21;3.35;;;1.95;;
19754;SDS011;10036;47.812;9.274;2023-02-18T09:29:48;2.47;;;1.98;;
19754;SDS011;10036;47.812;9.274;2023-02-18T09:32:15;3.13;;;2.13;;
19754;SDS011;10036;47.812;9.274;2023-02-18T09:34:42;2.17;;;1.90;;
19754;SDS011;10036;47.812;9.274;2023-02-18T09:37:10;2.97;;;1.80;;
19754;SDS011;10036;47.812;9.274;2023-02-18T09:39:40;2.25;;;1.90;;
19754;SDS011;10036;47.812;9.274;2023-02-18T09:42:09;2.13;;;1.92;;
19754;SDS011;10036;47.812;9.274;2023-02-18T09:44:40;1.65;;;1.55;;
19754;SDS011;10036;47.812;9.274;2023-02-18T09:47:11;2.05;;;1.77;;
19754;SDS011;10036;47.812;9.274;2023-02-18T09:49:42;2.20;;;1.90;;
19754;SDS011;10036;47.812;9.274;2023-02-18T09:52:13;2.20;;;1.92;;
19754;SDS011;10036;47.812;9.274;2023-02-18T09:54:45;2.17;;;1.67;;
19754;SDS011;10036;47.812;9.274;2023-02-18T09:57:14;2.30;;;1.80;;
19754;SDS011;10036;47.812;9.274;2023-02-18T09:59:47;1.40;;;1.40;;
19754;SDS011;10036;47.812;9.274;2023-02-18T10:02:20;1.90;;;1.70;;
19754;SDS011;10036;47.812;9.274;2023-02-18T10:04:47;1.58;;;1.30;;
19754;SDS011;10036;47.812;9.274;2023-02-18T10:07:17;1.45;;;1.38;;
19754;SDS011;10036;47.812;9.274;2023-02-18T10:09:48;1.50;;;1.38;;
19754;SDS011;10036;47.812;9.274;2023-02-18T10:12:18;1.73;;;1.50;;
19754;SDS011;10036;47.812;9.274;2023-02-18T10:14:47;1.88;;;1.50;;
19754;SDS011;10036;47.812;9.274;2023-02-18T10:17:16;1.20;;;1.10;;
19754;SDS011;10036;47.812;9.274;2023-02-18T10:19:44;1.30;;;1.20;;
19754;SDS011;10036;47.812;9.274;2023-02-18T10:22:14;1.70;;;1.30;;
19754;SDS011;10036;47.812;9.274;2023-02-18T10:24:43;1.20;;;1.10;;
19754;SDS011;10036;47.812;9.274;2023-02-18T10:27:16;1.75;;;1.30;;
19754;SDS011;10036;47.812;9.274;2023-02-18T10:29:49;1.98;;;1.20;;
19754;SDS011;10036;47.812;9.274;2023-02-18T10:32:18;1.60;;;1.20;;
19754;SDS011;10036;47.812;9.274;2023-02-18T10:34:52;1.30;;;1.20;;
19754;SDS011;10036;47.812;9.274;2023-02-18T10:37:32;1.23;;;1.15;;
19754;SDS011;10036;47.812;9.274;2023-02-18T10:40:12;1.77;;;1.42;;
19754;SDS011;10036;47.812;9.274;2023-02-18T10:42:48;1.55;;;1.40;;
19754;SDS011;10036;47.812;9.274;2023-02-18T10:45:23;2.45;;;1.20;;
19754;SDS011;10036;47.812;9.274;2023-02-18T10:47:59;3.30;;;1.08;;
19754;SDS011;10036;47.812;9.274;2023-02-18T10:50:36;2.60;;;1.58;;
19754;SDS011;10036;47.812;9.274;2023-02-18T10:53:07;1.73;;;1.10;;
19754;SDS011;10036;47.812;9.274;2023-02-18T10:55:38;1.20;;;1.20;;
19754;SDS011;10036;47.812;9.274;2023-02-18T11:00:56;2.47;;;1.10;;
19754;SDS011;10036;47.812;9.274;2023-02-18T11:03:24;3.15;;;1.58;;
19754;SDS011;10036;47.812;9.274;2023-02-18T11:05:54;2.38;;;1.13;;
19754;SDS011;10036;47.812;9.274;2023-02-18T11:08:22;5.15;;;1.30;;
19754;SDS011;10036;47.812;9.274;2023-02-18T11:10:50;1.58;;;1.40;;
19754;SDS011;10036;47.812;9.274;2023-02-18T11:13:22;1.15;;;1.00;;
19754;SDS011;10036;47.812;9.274;2023-02-18T11:15:57;0.98;;;0.98;;
19754;SDS011;10036;47.812;9.274;2023-02-18T11:18:28;1.00;;;1.00;;
19754;SDS011;10036;47.812;9.274;2023-02-18T11:21:00;1.10;;;1.10;;
19754;SDS011;10036;47.812;9.274;2023-02-18T11:23:29;1.20;;;1.10;;
19754;SDS011;10036;47.812;9.274;2023-02-18T11:25:59;1.45;;;1.05;;
19754;SDS011;10036;47.812;9.274;2023-02-18T11:28:31;1.35;;;1.10;;
19754;SDS011;10036;47.812;9.274;2023-02-18T11:31:10;2.38;;;1.08;;
19754;SDS011;10036;47.812;9.274;2023-02-18T11:33:43;1.98;;;1.23;;
19754;SDS011;10036;47.812;9.274;2023-02-18T11:36:16;1.20;;;1.20;;
19754;SDS011;10036;47.812;9.274;2023-02-18T11:38:48;1.00;;;1.00;;
19754;SDS011;10036;47.812;9.274;2023-02-18T11:41:17;1.67;;;1.00;;
19754;SDS011;10036;47.812;9.274;2023-02-18T11:43:48;1.00;;;1.00;;
19754;SDS011;10036;47.812;9.274;2023-02-18T11:46:18;1.20;;;1.00;;
19754;SDS011;10036;47.812;9.274;2023-02-18T11:48:47;1.67;;;0.93;;
19754;SDS011;10036;47.812;9.274;2023-02-18T11:51:16;1.05;;;1.00;;
19754;SDS011;10036;47.812;9.274;2023-02-18T11:53:54;0.80;;;0.80;;
19754;SDS011;10036;47.812;9.274;2023-02-18T11:56:27;0.93;;;0.93;;
19754;SDS011;10036;47.812;9.274;2023-02-18T11:58:56;1.58;;;1.15;;
19754;SDS011;10036;47.812;9.274;2023-02-18T12:01:28;1.40;;;1.30;;
19754;SDS011;10036;47.812;9.274;2023-02-18T12:04:04;1.67;;;1.00;;
19754;SDS011;10036;47.812;9.274;2023-02-18T12:06:34;1.30;;;1.20;;
19754;SDS011;10036;47.812;9.274;2023-02-18T12:09:05;1.95;;;1.10;;
19754;SDS011;10036;47.812;9.274;2023-02-18T12:11:39;1.10;;;1.10;;
19754;SDS011;10036;47.812;9.274;2023-02-18T12:14:09;1.30;;;1.20;;
19754;SDS011;10036;47.812;9.274;2023-02-18T12:16:44;2.30;;;1.10;;
19754;SDS011;10036;47.812;9.274;2023-02-18T12:19:30;1.20;;;1.10;;
19754;SDS011;10036;47.812;9.274;2023-02-18T12:22:07;1.20;;;1.10;;
19754;SDS011;10036;47.812;9.274;2023-02-18T12:24:45;1.23;;;1.08;;
19754;SDS011;10036;47.812;9.274;2023-02-18T12:27:22;2.33;;;1.20;;
19754;SDS011;10036;47.812;9.274;2023-02-18T12:29:59;1.42;;;1.13;;
19754;SDS011;10036;47.812;9.274;2023-02-18T12:32:47;1.02;;;0.90;;
19754;SDS011;10036;47.812;9.274;2023-02-18T12:35:26;2.40;;;1.10;;
19754;SDS011;10036;47.812;9.274;2023-02-18T12:38:19;1.30;;;1.20;;
19754;SDS011;10036;47.812;9.274;2023-02-18T12:41:06;1.63;;;1.10;;
19754;SDS011;10036;47.812;9.274;2023-02-18T12:43:51;1.20;;;1.10;;
19754;SDS011;10036;47.812;9.274;2023-02-18T12:46:31;1.92;;;1.30;;
19754;SDS011;10036;47.812;9.274;2023-02-18T12:49:28;1.80;;;1.30;;
19754;SDS011;10036;47.812;9.274;2023-02-18T12:52:11;4.32;;;1.10;;
19754;SDS011;10036;47.812;9.274;2023-02-18T12:54:55;1.55;;;1.00;;
19754;SDS011;10036;47.812;9.274;2023-02-18T12:57:35;1.70;;;0.90;;
19754;SDS011;10036;47.812;9.274;2023-02-18T13:00:20;1.40;;;1.30;;
19754;SDS011;10036;47.812;9.274;2023-02-18T13:03:14;1.02;;;1.02;;
19754;SDS011;10036;47.812;9.274;2023-02-18T13:06:15;0.98;;;0.98;;
19754;SDS011;10036;47.812;9.274;2023-02-18T13:08:51;1.23;;;1.00;;
19754;SDS011;10036;47.812;9.274;2023-02-18T13:11:31;0.90;;;0.90;;
19754;SDS011;10036;47.812;9.274;2023-02-18T13:14:08;2.45;;;1.00;;
19754;SDS011;10036;47.812;9.274;2023-02-18T13:16:38;1.60;;;1.00;;
19754;SDS011;10036;47.812;9.274;2023-02-18T13:19:10;1.20;;;1.10;;
19754;SDS011;10036;47.812;9.274;2023-02-18T13:21:45;1.65;;;1.00;;
19754;SDS011;10036;47.812;9.274;2023-02-18T13:24:20;1.08;;;1.08;;
19754;SDS011;10036;47.812;9.274;2023-02-18T13:26:52;1.85;;;1.00;;
19754;SDS011;10036;47.812;9.274;2023-02-18T13:29:24;21.85;;;11.85;;
19754;SDS011;10036;47.812;9.274;2023-02-18T13:31:58;19.00;;;12.13;;
19754;SDS011;10036;47.812;9.274;2023-02-18T13:34:35;5.45;;;4.95;;
19754;SDS011;10036;47.812;9.274;2023-02-18T13:37:10;1.35;;;1.25;;
19754;SDS011;10036;47.812;9.274;2023-02-18T13:39:48;2.55;;;1.10;;
19754;SDS011;10036;47.812;9.274;2023-02-18T13:42:24;2.28;;;1.00;;
19754;SDS011;10036;47.812;9.274;2023-02-18T13:45:01;1.05;;;1.05;;
19754;SDS011;10036;47.812;9.274;2023-02-18T13:47:37;2.03;;;1.00;;
19754;SDS011;10036;47.812;9.274;2023-02-18T13:50:15;1.88;;;1.08;;
19754;SDS011;10036;47.812;9.274;2023-02-18T13:53:13;1.02;;;1.02;;
19754;SDS011;10036;47.812;9.274;2023-02-18T13:55:52;1.48;;;1.20;;
19754;SDS011;10036;47.812;9.274;2023-02-18T13:58:23;0.90;;;0.90;;
19754;SDS011;10036;47.812;9.274;2023-02-18T14:00:55;1.38;;;1.10;;
19754;SDS011;10036;47.812;9.274;2023-02-18T14:03:37;1.00;;;1.00;;
19754;SDS011;10036;47.812;9.274;2023-02-18T14:06:17;1.02;;;1.02;;
19754;SDS011;10036;47.812;9.274;2023-02-18T14:09:00;2.08;;;1.27;;
19754;SDS011;10036;47.812;9.274;2023-02-18T14:17:13;3.25;;;0.93;;
19754;SDS011;10036;47.812;9.274;2023-02-18T14:26:30;1.10;;;1.00;;
19754;SDS011;10036;47.812;9.274;2023-02-18T14:29:00;1.20;;;1.13;;
19754;SDS011;10036;47.812;9.274;2023-02-18T14:34:40;1.10;;;1.10;;
19754;SDS011;10036;47.812;9.274;2023-02-18T14:40:35;1.17;;;1.02;;
19754;SDS011;10036;47.812;9.274;2023-02-18T14:43:21;0.90;;;0.90;;
19754;SDS011;10036;47.812;9.274;2023-02-18T14:46:04;3.28;;;1.10;;
19754;SDS011;10036;47.812;9.274;2023-02-18T14:48:44;1.17;;;1.15;;
19754;SDS011;10036;47.812;9.274;2023-02-18T14:51:25;1.10;;;1.10;;
19754;SDS011;10036;47.812;9.274;2023-02-18T14:53:56;1.17;;;1.10;;
19754;SDS011;10036;47.812;9.274;2023-02-18T14:56:30;1.05;;;1.02;;
19754;SDS011;10036;47.812;9.274;2023-02-18T14:59:02;1.10;;;1.10;;
19754;SDS011;10036;47.812;9.274;2023-02-18T15:01:31;2.35;;;1.40;;
19754;SDS011;10036;47.812;9.274;2023-02-18T15:03:59;1.42;;;1.10;;
19754;SDS011;10036;47.812;9.274;2023-02-18T15:06:28;1.40;;;1.30;;
19754;SDS011;10036;47.812;9.274;2023-02-18T15:08:56;1.42;;;1.33;;
19754;SDS011;10036;47.812;9.274;2023-02-18T15:11:24;1.63;;;1.20;;
19754;SDS011;10036;47.812;9.274;2023-02-18T15:14:02;2.80;;;1.40;;
19754;SDS011;10036;47.812;9.274;2023-02-18T15:16:35;2.15;;;1.40;;
19754;SDS011;10036;47.812;9.274;2023-02-18T15:19:03;1.50;;;1.40;;
19754;SDS011;10036;47.812;9.274;2023-02-18T15:21:34;1.17;;;1.10;;
19754;SDS011;10036;47.812;9.274;2023-02-18T15:24:04;1.20;;;1.10;;
19754;SDS011;10036;47.812;9.274;2023-02-18T15:26:35;2.03;;;1.30;;
19754;SDS011;10036;47.812;9.274;2023-02-18T15:29:11;1.20;;;1.10;;
19754;SDS011;10036;47.812;9.274;2023-02-18T15:31:42;1.13;;;1.10;;
19754;SDS011;10036;47.812;9.274;2023-02-18T15:34:28;1.45;;;1.30;;
19754;SDS011;10036;47.812;9.274;2023-02-18T15:36:58;1.27;;;1.10;;
19754;SDS011;10036;47.812;9.274;2023-02-18T15:39:26;1.15;;;1.15;;